Terminal Aerodrome Forecast
Issued by NWS

Home | Current Version | Previous Version | Text Only | Print | Product List | Glossary On
Versions: 1 2 3 4 5 6 7 8 9 10 11 12 13 14 15 16 17 18 19 20 21 22 23 24 25 26 27 28 29 30 31 32 33 34 35 36
000
FTUS41 KGYX 151728
TAFPSM
TAF
KPSM 151728Z 1518/1618 20010G17KT P6SM SCT120 BKN250
     FM152300 19007KT P6SM SCT100 BKN200 PROB30 1606/1612 4SM -SHRA
      SCT030 OVC050
     FM161200 19006KT 5SM -RA BKN030 OVC050=

USA.gov is the U.S. government's official web portal to all federal, state and local government web resources and services.